createdAt,value
2018-08-19T00:01:44.890Z,18.00
2018-08-19T00:06:48.238Z,18.00
2018-08-19T00:11:51.538Z,18.00
2018-08-19T00:17:07.905Z,17.90
2018-08-19T00:22:11.203Z,17.90
2018-08-19T00:27:14.450Z,17.80
2018-08-19T00:32:17.652Z,17.80
2018-08-19T00:37:20.858Z,17.70
2018-08-19T00:42:24.127Z,17.60
2018-08-19T00:47:27.386Z,17.60
2018-08-19T00:52:30.638Z,17.60
2018-08-19T00:57:33.847Z,17.40
2018-08-19T01:02:37.070Z,17.40
2018-08-19T01:07:40.381Z,17.40
2018-08-19T01:12:43.684Z,17.20
2018-08-19T01:17:46.927Z,17.20
2018-08-19T01:22:50.167Z,17.20
2018-08-19T01:27:53.502Z,17.20
2018-08-19T01:32:56.723Z,17.00
2018-08-19T01:38:00.082Z,17.00
2018-08-19T01:43:05.236Z,16.90
2018-08-19T01:48:08.730Z,16.80
2018-08-19T01:53:11.939Z,16.80
2018-08-19T01:58:15.144Z,16.70
2018-08-19T02:03:18.362Z,16.60
2018-08-19T02:08:21.674Z,16.60
2018-08-19T02:13:24.906Z,16.60
2018-08-19T02:18:28.096Z,16.60
2018-08-19T02:23:31.307Z,16.80
2018-08-19T02:28:34.791Z,16.80
2018-08-19T02:33:38.002Z,16.80
2018-08-19T02:38:41.233Z,16.60
2018-08-19T02:43:59.926Z,16.60
2018-08-19T02:49:03.258Z,16.60
2018-08-19T02:54:06.526Z,16.60
2018-08-19T02:59:10.083Z,16.70
2018-08-19T03:04:13.358Z,16.90
2018-08-19T03:09:16.594Z,16.80
2018-08-19T03:14:19.926Z,16.80
2018-08-19T03:19:23.190Z,16.80
2018-08-19T03:24:34.662Z,16.80
2018-08-19T03:29:43.379Z,16.80
2018-08-19T03:34:46.652Z,16.70
2018-08-19T03:39:50.157Z,16.80
2018-08-19T03:44:53.423Z,16.80
2018-08-19T03:49:56.715Z,16.70
2018-08-19T03:54:59.971Z,16.60
2018-08-19T04:00:04.586Z,16.50
2018-08-19T04:05:07.837Z,16.60
2018-08-19T04:10:11.332Z,16.50
2018-08-19T04:15:14.587Z,16.50
2018-08-19T04:20:21.194Z,16.50
2018-08-19T04:25:29.703Z,16.50
2018-08-19T04:30:32.968Z,16.60
2018-08-19T04:35:36.218Z,16.70
2018-08-19T04:40:46.435Z,16.80
2018-08-19T04:45:49.766Z,16.80
2018-08-19T04:50:54.220Z,16.90
2018-08-19T04:55:57.486Z,16.90
2018-08-19T05:01:00.864Z,16.90
2018-08-19T05:06:04.102Z,17.00
2018-08-19T05:11:07.329Z,17.10
2018-08-19T05:16:15.118Z,17.10
2018-08-19T05:21:18.442Z,17.10
2018-08-19T05:26:21.689Z,17.20
2018-08-19T05:31:25.221Z,17.20
2018-08-19T05:36:32.654Z,17.30
2018-08-19T05:41:36.929Z,17.30
2018-08-19T05:46:40.295Z,17.40
2018-08-19T05:51:44.583Z,17.40
2018-08-19T05:56:48.067Z,17.40
2018-08-19T06:01:52.385Z,17.50
2018-08-19T06:07:04.541Z,17.50
2018-08-19T06:12:11.693Z,17.60
2018-08-19T06:17:15.200Z,17.60
2018-08-19T06:22:20.497Z,17.70
2018-08-19T06:27:24.341Z,17.70
2018-08-19T06:32:31.706Z,17.80
2018-08-19T06:37:37.176Z,17.90
2018-08-19T06:42:47.490Z,18.00
2018-08-19T06:47:53.827Z,18.10
2018-08-19T06:52:57.199Z,18.10
2018-08-19T06:58:00.818Z,18.20
2018-08-19T07:03:09.875Z,18.20
2018-08-19T07:08:13.175Z,18.30
2018-08-19T07:13:16.478Z,18.30
2018-08-19T07:18:19.739Z,18.40
2018-08-19T07:23:25.074Z,18.50
2018-08-19T07:28:28.339Z,18.60
2018-08-19T07:33:33.281Z,18.70
2018-08-19T07:38:36.534Z,18.80
2018-08-19T07:43:39.814Z,18.90
2018-08-19T07:48:43.181Z,19.10
2018-08-19T07:53:47.068Z,19.30
2018-08-19T07:59:03.031Z,19.40
2018-08-19T08:04:07.262Z,19.50
2018-08-19T08:09:10.758Z,19.70
2018-08-19T08:14:14.235Z,19.90
2018-08-19T08:19:17.812Z,20.10
2018-08-19T08:24:27.834Z,20.10
2018-08-19T08:29:31.034Z,20.30
2018-08-19T08:34:34.242Z,20.40
2018-08-19T08:39:43.357Z,20.60
2018-08-19T08:44:47.661Z,20.60
2018-08-19T08:49:50.930Z,20.60
2018-08-19T08:55:02.446Z,20.50
2018-08-19T09:00:07.410Z,20.40
2018-08-19T09:05:12.351Z,20.70
2018-08-19T09:10:32.019Z,21.00
2018-08-19T09:15:35.434Z,21.30
2018-08-19T09:20:49.315Z,21.60
2018-08-19T09:25:52.486Z,21.80
2018-08-19T09:30:55.818Z,22.00
2018-08-19T09:35:59.874Z,22.10
2018-08-19T09:41:03.137Z,22.30
2018-08-19T09:46:10.078Z,22.60
2018-08-19T09:51:15.279Z,22.50
2018-08-19T09:56:21.134Z,22.10
2018-08-19T10:01:30.844Z,21.90
2018-08-19T10:06:36.507Z,21.60
2018-08-19T10:11:41.977Z,21.70
2018-08-19T10:16:46.480Z,21.80
2018-08-19T10:21:50.922Z,22.10
2018-08-19T10:26:54.284Z,22.20
2018-08-19T10:32:01.554Z,22.20
2018-08-19T10:37:05.363Z,22.40
2018-08-19T10:42:21.410Z,22.70
2018-08-19T10:47:25.632Z,22.90
2018-08-19T10:52:31.196Z,23.10
2018-08-19T10:57:35.585Z,23.20
2018-08-19T11:02:38.867Z,23.20
2018-08-19T11:07:42.175Z,23.00
2018-08-19T11:12:46.486Z,23.00
2018-08-19T11:17:50.727Z,23.40
2018-08-19T11:22:56.645Z,23.60
2018-08-19T11:27:59.927Z,23.60
2018-08-19T11:33:04.035Z,23.50
2018-08-19T11:38:07.459Z,23.70
2018-08-19T11:43:16.630Z,23.80
2018-08-19T11:48:20.086Z,23.90
2018-08-19T11:53:23.596Z,24.30
2018-08-19T11:58:48.562Z,24.00
2018-08-19T12:04:00.894Z,24.10
2018-08-19T12:09:07.222Z,24.30
2018-08-19T12:14:13.159Z,24.50
2018-08-19T12:19:35.295Z,24.60
2018-08-19T12:24:46.604Z,24.70
2018-08-19T12:30:06.787Z,24.60
2018-08-19T12:35:10.019Z,24.70
2018-08-19T12:40:13.218Z,24.80
2018-08-19T12:45:16.390Z,25.00
2018-08-19T12:50:19.709Z,24.90
2018-08-19T12:55:22.871Z,25.10
2018-08-19T13:00:27.139Z,25.20
2018-08-19T13:05:32.015Z,25.20
2018-08-19T13:10:41.727Z,25.20
2018-08-19T13:15:45.710Z,25.20
2018-08-19T13:21:04.802Z,25.30
2018-08-19T13:26:08.120Z,25.50
2018-08-19T13:31:15.138Z,25.30
2018-08-19T13:36:32.741Z,25.40
2018-08-19T13:41:36.385Z,25.50
2018-08-19T13:46:40.321Z,25.60
2018-08-19T13:51:43.562Z,25.50
2018-08-19T13:56:51.693Z,25.50
2018-08-19T14:01:57.750Z,25.70
2018-08-19T14:07:01.459Z,25.60
2018-08-19T14:12:05.130Z,25.50
2018-08-19T14:17:08.385Z,25.70
2018-08-19T14:22:11.590Z,25.60
2018-08-19T14:27:15.124Z,25.60
2018-08-19T14:32:30.466Z,25.90
2018-08-19T14:37:33.981Z,25.80
2018-08-19T14:42:37.610Z,25.80
2018-08-19T14:47:40.829Z,25.80
2018-08-19T14:52:44.049Z,25.80
2018-08-19T14:57:47.245Z,25.80
2018-08-19T15:02:50.707Z,25.90
2018-08-19T15:07:53.876Z,25.80
2018-08-19T15:12:57.055Z,26.00
2018-08-19T15:18:02.249Z,26.10
2018-08-19T15:23:15.992Z,26.00
2018-08-19T15:28:20.822Z,26.00
2018-08-19T15:33:24.022Z,25.80
2018-08-19T15:38:29.202Z,25.80
2018-08-19T15:43:35.478Z,25.80
2018-08-19T15:48:38.658Z,26.00
2018-08-19T15:53:42.946Z,26.00
2018-08-19T15:58:49.808Z,25.80
2018-08-19T16:03:58.599Z,25.60
2018-08-19T16:09:01.980Z,25.60
2018-08-19T16:14:17.719Z,25.60
2018-08-19T16:19:21.001Z,25.60
2018-08-19T16:24:25.562Z,25.50
2018-08-19T16:29:28.772Z,25.50
2018-08-19T16:34:32.009Z,25.50
2018-08-19T16:39:35.161Z,25.40
2018-08-19T16:44:38.529Z,25.40
2018-08-19T16:49:41.646Z,25.20
2018-08-19T16:54:46.018Z,25.20
2018-08-19T16:59:49.272Z,25.20
2018-08-19T17:04:52.583Z,25.10
2018-08-19T17:09:57.871Z,25.10
2018-08-19T17:15:01.105Z,24.90
2018-08-19T17:20:04.423Z,24.80
2018-08-19T17:25:08.706Z,24.80
2018-08-19T17:30:16.240Z,24.70
2018-08-19T17:35:19.542Z,24.70
2018-08-19T17:40:23.303Z,24.60
2018-08-19T17:45:27.012Z,24.50
2018-08-19T17:50:30.726Z,24.40
2018-08-19T17:55:34.342Z,24.30
2018-08-19T18:00:37.527Z,24.30
2018-08-19T18:05:40.842Z,24.20
2018-08-19T18:10:51.898Z,24.20
2018-08-19T18:15:56.154Z,24.00
2018-08-19T18:21:02.882Z,24.00
2018-08-19T18:26:06.437Z,23.90
2018-08-19T18:31:22.459Z,23.70
2018-08-19T18:36:26.781Z,23.80
2018-08-19T18:41:39.906Z,23.70
2018-08-19T18:46:47.010Z,23.70
2018-08-19T18:51:52.359Z,23.50
2018-08-19T18:56:55.596Z,23.40
2018-08-19T19:02:00.653Z,23.40
2018-08-19T19:07:03.927Z,23.20
2018-08-19T19:12:07.142Z,23.10
2018-08-19T19:17:10.390Z,23.00
2018-08-19T19:22:14.634Z,22.90
2018-08-19T19:27:18.920Z,22.70
2018-08-19T19:32:24.606Z,22.60
2018-08-19T19:37:28.910Z,22.50
2018-08-19T19:42:38.604Z,22.30
2018-08-19T19:47:41.933Z,22.30
2018-08-19T19:52:57.703Z,22.20
2018-08-19T19:58:00.929Z,22.20
2018-08-19T20:03:04.142Z,22.20
2018-08-19T20:08:07.458Z,22.20
2018-08-19T20:13:10.704Z,22.20
2018-08-19T20:18:13.930Z,22.10
2018-08-19T20:23:22.634Z,22.10
2018-08-19T20:28:25.845Z,22.00
2018-08-19T20:33:29.335Z,22.00
2018-08-19T20:38:32.573Z,22.10
2018-08-19T20:43:35.782Z,22.00
2018-08-19T20:48:39.054Z,22.10
2018-08-19T20:53:42.306Z,22.10
2018-08-19T20:58:45.613Z,22.10
2018-08-19T21:03:48.838Z,22.10
2018-08-19T21:08:53.094Z,21.90
2018-08-19T21:13:56.313Z,21.70
2018-08-19T21:19:00.862Z,21.50
2018-08-19T21:24:04.143Z,21.60
2018-08-19T21:29:07.330Z,21.40
2018-08-19T21:34:10.794Z,21.40
2018-08-19T21:39:17.470Z,21.40
2018-08-19T21:44:20.989Z,21.30
2018-08-19T21:49:24.198Z,21.30
2018-08-19T21:54:27.474Z,21.30
2018-08-19T21:59:32.762Z,21.30
2018-08-19T22:04:35.967Z,21.20
2018-08-19T22:09:39.160Z,21.10
2018-08-19T22:14:44.460Z,21.20
2018-08-19T22:19:47.746Z,21.10
2018-08-19T22:24:51.035Z,21.10
2018-08-19T22:29:54.241Z,21.20
2018-08-19T22:34:57.483Z,21.30
2018-08-19T22:40:00.736Z,21.30
2018-08-19T22:45:04.114Z,21.30
2018-08-19T22:50:07.368Z,21.30
2018-08-19T22:55:10.642Z,21.30
2018-08-19T23:00:18.128Z,21.30
2018-08-19T23:05:21.353Z,21.30
2018-08-19T23:10:24.532Z,21.40
2018-08-19T23:15:36.610Z,21.40
2018-08-19T23:20:39.846Z,21.40
2018-08-19T23:25:43.061Z,21.40
2018-08-19T23:30:47.377Z,21.50
2018-08-19T23:35:50.598Z,21.40
2018-08-19T23:40:53.783Z,21.40
2018-08-19T23:45:57.022Z,21.40
2018-08-19T23:51:00.240Z,21.40
2018-08-19T23:56:03.426Z,21.40
